Gwinner, ND

4:34 AM CDT on May 25, 2018 (GMT -0500)
Gwinner-melroe

Weather History for KGWR - October, 2012

Change the Weather History Date:

Monday, October 22, 2012

  Actual Average (KP67) Record (KP67)
Temperature  
Mean Temperature 47 °F -  
Max Temperature 53 °F 50 °F 45 °F (1997)
Min Temperature 41 °F 30 °F 24 °F (1996)
Degree Days  
Heating Degree Days 18    
Moisture  
Dew Point 39 °F    
Average Humidity 74    
Maximum Humidity 93    
Minimum Humidity 58    
Precipitation  
Precipitation 0.00 in - - ()
Sea Level Pressure  
Sea Level Pressure 29.99 in    
Wind  
Wind Speed 13 mph (NNE)    
Max Wind Speed 17 mph    
Max Gust Speed 17 mph    
Visibility 10 miles    
Events      
Averages and records for this station are not official NWS values.
T = Trace of Precipitation, MM = Missing Value Source: NWS Daily Summary

Daily Weather History Graph

Daily Weather History Graph

Search for Another Location

Airport or City:

Astronomy

Oct. 22, 2012 Rise Set
Actual Time 7:58 AM CDT 6:31 PM CDT
Civil Twilight 7:27 AM CDT 7:01 PM CDT
Nautical Twilight 6:52 AM CDT 7:36 PM CDT
Astronomical Twilight 6:17 AM CDT 8:11 PM CDT
Moon 3:00 PM CDT (10/22) 12:23 AM CDT (10/22)
Length of Visible Light 11h 34m
Length of Day
10h 32m
First Quarter, 56% of the Moon is Illuminated
Oct 22
First Quarter
Oct 29
Full
Nov 6
Last Quarter
Nov 13
New
Nov 20
First Quarter

Hourly Weather History & Observations

Time (CDT) Temp. Windchill Dew Point Humidity Pressure Visibility Wind Dir Wind Speed Gust Speed Precip Events Conditions
12:15 AM 44.6 °F 38.8 °F 39.2 °F 81% 30.04 in 10.0 mi North 11.5 mph - 0.00 in   Mostly Cloudy
12:35 AM 44.6 °F 38.8 °F 39.2 °F 81% 30.04 in 10.0 mi North 11.5 mph - 0.00 in   Overcast
12:55 AM 44.6 °F 38.4 °F 39.2 °F 81% 30.04 in 10.0 mi North 12.7 mph - 0.00 in   Mostly Cloudy
1:15 AM 44.6 °F 38.1 °F 39.2 °F 81% 30.03 in 10.0 mi North 13.8 mph - 0.00 in   Mostly Cloudy
1:35 AM 44.6 °F 38.1 °F 39.2 °F 81% 30.04 in 10.0 mi North 13.8 mph - 0.00 in   Scattered Clouds
1:55 AM 42.8 °F 35.8 °F 39.2 °F 87% 30.04 in 10.0 mi North 13.8 mph - 0.00 in   Overcast
2:15 AM 42.8 °F 36.2 °F 39.2 °F 87% 30.03 in 10.0 mi NNE 12.7 mph - 0.00 in   Overcast
2:55 AM 42.8 °F 36.2 °F 37.4 °F 81% 30.03 in 10.0 mi NNE 12.7 mph - 0.00 in   Mostly Cloudy
3:15 AM 42.8 °F 35.4 °F 37.4 °F 81% 30.04 in 10.0 mi NNE 15.0 mph - 0.00 in   Mostly Cloudy
3:35 AM 42.8 °F 35.8 °F 35.6 °F 76% 30.04 in 10.0 mi North 13.8 mph - 0.00 in   Overcast
4:15 AM 42.8 °F 35.4 °F 35.6 °F 76% 30.04 in 10.0 mi North 15.0 mph - 0.00 in   Mostly Cloudy
4:55 AM 42.8 °F 35.1 °F 35.6 °F 76% 30.04 in 10.0 mi North 16.1 mph - 0.00 in   Mostly Cloudy
5:15 AM 42.8 °F 35.4 °F 35.6 °F 76% 30.05 in 10.0 mi North 15.0 mph - 0.00 in   Mostly Cloudy
5:35 AM 41.0 °F 32.8 °F 35.6 °F 81% 30.05 in 10.0 mi North 16.1 mph - 0.00 in   Scattered Clouds
5:55 AM 41.0 °F 32.8 °F 35.6 °F 81% 30.05 in 10.0 mi North 16.1 mph - 0.00 in   Clear
6:15 AM 41.0 °F 32.5 °F 35.6 °F 81% 30.05 in 10.0 mi NNE 17.3 mph - 0.00 in   Clear
6:35 AM 41.0 °F 33.1 °F 33.8 °F 76% 30.04 in 10.0 mi NNE 15.0 mph - 0.00 in   Clear
7:15 AM 41.0 °F 33.1 °F 33.8 °F 76% 30.05 in 10.0 mi NNE 15.0 mph - 0.00 in   Partly Cloudy
7:55 AM 41.0 °F 33.9 °F 33.8 °F 76% 30.04 in 10.0 mi NNE 12.7 mph - 0.00 in   Clear
8:15 AM 41.0 °F 33.1 °F 33.8 °F 76% 30.05 in 10.0 mi NNE 15.0 mph - 0.00 in   Clear
8:35 AM 41.0 °F 33.9 °F 33.8 °F 76% 30.05 in 10.0 mi NNE 12.7 mph - 0.00 in   Clear
8:55 AM 41.0 °F 33.5 °F 33.8 °F 76% 30.05 in 10.0 mi NNE 13.8 mph - 0.00 in   Clear
9:15 AM 41.0 °F 34.3 °F 33.8 °F 76% 30.06 in 10.0 mi NNE 11.5 mph - 0.00 in   Clear
9:35 AM 42.8 °F 35.1 °F 33.8 °F 70% 30.05 in 10.0 mi NNE 16.1 mph - 0.00 in   Clear
9:55 AM 42.8 °F 35.4 °F 35.6 °F 76% 30.04 in 10.0 mi NE 15.0 mph - 0.00 in   Clear
10:15 AM 44.6 °F 37.2 °F 35.6 °F 71% 30.04 in 10.0 mi NE 17.3 mph - 0.00 in   Clear
10:35 AM 44.6 °F 38.1 °F 35.6 °F 71% 30.06 in 10.0 mi NE 13.8 mph - 0.00 in   Clear
10:55 AM 46.4 °F 40.4 °F 37.4 °F 71% 30.04 in 10.0 mi NE 13.8 mph - 0.00 in   Clear
11:15 AM 46.4 °F 39.8 °F 37.4 °F 71% 30.04 in 10.0 mi NE 16.1 mph - 0.00 in   Clear
11:35 AM 46.4 °F 39.8 °F 37.4 °F 71% 30.03 in 10.0 mi NE 16.1 mph - 0.00 in   Clear
11:55 AM 48.2 °F - 37.4 °F 66% 30.02 in 10.0 mi NE 15.0 mph - 0.00 in   Clear
12:15 PM 50.0 °F - 37.4 °F 62% 30.02 in 10.0 mi NE 15.0 mph - 0.00 in   Clear
12:35 PM 50.0 °F - 37.4 °F 62% 30.02 in 10.0 mi NE 13.8 mph - 0.00 in   Clear
12:55 PM 51.8 °F - 37.4 °F 58% 30.01 in 10.0 mi ENE 12.7 mph - 0.00 in   Clear
1:15 PM 50.0 °F - 37.4 °F 62% 30.01 in 10.0 mi NE 9.2 mph - 0.00 in   Clear
1:55 PM 51.8 °F - 37.4 °F 58% 29.99 in 10.0 mi NE 12.7 mph - 0.00 in   Clear
2:15 PM 51.8 °F - 37.4 °F 58% 29.98 in 10.0 mi NNE 12.7 mph - 0.00 in   Clear
2:35 PM 51.8 °F - 37.4 °F 58% 29.98 in 10.0 mi NE 9.2 mph - 0.00 in   Clear
2:55 PM 53.6 °F - 39.2 °F 58% 29.96 in 10.0 mi NE 11.5 mph - 0.00 in   Clear
3:15 PM 53.6 °F - 39.2 °F 58% 29.95 in 10.0 mi NE 10.4 mph - 0.00 in   Clear
3:35 PM 53.6 °F - 39.2 °F 58% 29.95 in 10.0 mi NNE 12.7 mph - 0.00 in   Clear
3:55 PM 53.6 °F - 39.2 °F 58% 29.95 in 10.0 mi NNE 12.7 mph - 0.00 in   Clear
4:15 PM 53.6 °F - 39.2 °F 58% 29.94 in 10.0 mi NE 12.7 mph 17.3 mph 0.00 in   Clear
4:35 PM 53.6 °F - 39.2 °F 58% 29.94 in 10.0 mi NE 13.8 mph - 0.00 in   Clear
4:55 PM 53.6 °F - 39.2 °F 58% 29.94 in 10.0 mi NNE 12.7 mph - 0.00 in   Clear
5:15 PM 51.8 °F - 39.2 °F 62% 29.94 in 10.0 mi NNE 16.1 mph - 0.00 in   Partly Cloudy
5:35 PM 51.8 °F - 39.2 °F 62% 29.93 in 10.0 mi NNE 15.0 mph - 0.00 in   Scattered Clouds
5:55 PM 50.0 °F - 41.0 °F 71% 29.92 in 10.0 mi NNE 15.0 mph - 0.00 in   Partly Cloudy
6:15 PM 48.2 °F - 41.0 °F 76% 29.92 in 10.0 mi NNE 13.8 mph - 0.00 in   Clear
6:35 PM 48.2 °F - 41.0 °F 76% 29.93 in 10.0 mi NNE 11.5 mph - 0.00 in   Mostly Cloudy
6:55 PM 48.2 °F - 41.0 °F 76% 29.92 in 10.0 mi North 12.7 mph - 0.00 in   Overcast
7:15 PM 48.2 °F - 42.8 °F 82% 29.92 in 8.0 mi North 11.5 mph - 0.00 in   Overcast
7:35 PM 48.2 °F - 42.8 °F 82% 29.91 in 10.0 mi NNE 12.7 mph - 0.00 in   Overcast
7:55 PM 46.4 °F 41.5 °F 42.8 °F 87% 29.91 in 10.0 mi North 10.4 mph - 0.00 in   Overcast
8:15 PM 46.4 °F 40.7 °F 42.8 °F 87% 29.91 in 10.0 mi North 12.7 mph - 0.00 in   Overcast
8:35 PM 46.4 °F 41.1 °F 42.8 °F 87% 29.90 in 10.0 mi NNE 11.5 mph - 0.00 in   Mostly Cloudy
8:55 PM 46.4 °F 41.5 °F 42.8 °F 87% 29.89 in 10.0 mi NNE 10.4 mph - 0.00 in   Mostly Cloudy
9:55 PM 46.4 °F 41.9 °F 42.8 °F 87% 29.89 in 10.0 mi North 9.2 mph - 0.00 in   Overcast
10:15 PM 46.4 °F 42.4 °F 44.6 °F 93% 29.89 in 10.0 mi NNE 8.1 mph - 0.00 in   Overcast
10:35 PM 48.2 °F - 44.6 °F 87% 29.88 in 10.0 mi NNE 8.1 mph - 0.00 in   Overcast
10:55 PM 48.2 °F - 44.6 °F 87% 29.88 in 10.0 mi NE 10.4 mph - 0.00 in   Overcast
11:15 PM 48.2 °F - 44.6 °F 87% 29.88 in 10.0 mi NNE 8.1 mph - 0.00 in   Overcast
11:35 PM 48.2 °F - 44.6 °F 87% 29.86 in 10.0 mi NNE 9.2 mph - 0.00 in   Overcast